Time;durP1;ratioP1;P1;durP2;ratioP2;P2;SDS_P1;SDS_P2;PMS_P1;PMS_P2;Temp;Humidity;BMP_temperature;BMP_pressure;BME280_temperature;BME280_humidity;BME280_pressure;Samples;Min_cycle;Max_cycle;Signal;HPM_P1;HPM_P2
2022/08/18 00:00:33;;;;;;;21.83;8.40;;;;;;;;;;5105291;28;20111;-71
2022/08/18 00:03:01;;;;;;;17.50;7.80;;;;;;;;;;5104174;28;20074;-70
2022/08/18 00:05:27;;;;;;;24.10;9.90;;;;;;;;;;5108891;28;20035;-71
2022/08/18 00:07:53;;;;;;;24.52;9.63;;;;;;;;;;5104976;28;20044;-70
2022/08/18 00:10:19;;;;;;;25.73;9.57;;;;;;;;;;5102458;28;20533;-71
2022/08/18 00:12:45;;;;;;;21.58;9.20;;;;;;;;;;5106386;28;20040;-70
2022/08/18 00:15:13;;;;;;;22.88;9.63;;;;;;;;;;5105333;28;20055;-70
2022/08/18 00:17:39;;;;;;;22.30;10.02;;;;;;;;;;5107955;28;20039;-71
2022/08/18 00:20:08;;;;;;;23.65;10.20;;;;;;;;;;5104498;28;20139;-71
2022/08/18 00:22:34;;;;;;;23.23;11.00;;;;;;;;;;5106911;28;20512;-70
2022/08/18 00:25:00;;;;;;;18.52;9.98;;;;;;;;;;5104490;28;20042;-70
2022/08/18 00:27:28;;;;;;;19.45;10.45;;;;;;;;;;5104720;28;20216;-70
2022/08/18 00:29:55;;;;;;;23.65;10.02;;;;;;;;;;5085048;28;20039;-70
2022/08/18 00:32:36;;;;;;;21.17;10.48;;;;;;;;;;5087221;28;20119;-71
2022/08/18 00:35:12;;;;;;;24.23;10.30;;;;;;;;;;5096869;28;20028;-71
2022/08/18 00:37:39;;;;;;;21.92;10.88;;;;;;;;;;5099926;28;20165;-70
2022/08/18 00:40:06;;;;;;;28.65;11.13;;;;;;;;;;5105227;28;20043;-71
2022/08/18 00:42:32;;;;;;;18.58;9.85;;;;;;;;;;5101504;28;20039;-70
2022/08/18 00:45:01;;;;;;;25.77;12.80;;;;;;;;;;5102029;28;20070;-70
2022/08/18 00:47:28;;;;;;;24.05;10.50;;;;;;;;;;5099764;28;20047;-71
2022/08/18 00:49:54;;;;;;;26.85;11.70;;;;;;;;;;5100386;28;20093;-70
2022/08/18 00:52:21;;;;;;;21.70;10.73;;;;;;;;;;5108813;28;20043;-70
2022/08/18 00:54:48;;;;;;;26.65;10.77;;;;;;;;;;5104066;28;20036;-70
2022/08/18 00:57:15;;;;;;;23.10;12.10;;;;;;;;;;5104561;28;20371;-70
2022/08/18 00:59:45;;;;;;;24.25;12.60;;;;;;;;;;5103369;28;20123;-70
2022/08/18 01:02:15;;;;;;;23.52;11.63;;;;;;;;;;5105557;28;20173;-70
2022/08/18 01:04:44;;;;;;;20.98;12.98;;;;;;;;;;5100778;28;20339;-70
2022/08/18 01:07:19;;;;;;;21.23;12.70;;;;;;;;;;5092296;28;20506;-70
2022/08/18 01:09:46;;;;;;;18.40;13.02;;;;;;;;;;5105502;28;20054;-70
2022/08/18 01:12:12;;;;;;;28.48;15.45;;;;;;;;;;5102048;28;20051;-70
2022/08/18 01:14:39;;;;;;;18.70;13.55;;;;;;;;;;5108067;28;20051;-70
2022/08/18 01:22:37;;;;;;;26.42;14.85;;;;;;;;;;5101076;28;20048;-70
2022/08/18 01:27:50;;;;;;;24.25;14.10;;;;;;;;;;5099414;28;20052;-70
2022/08/18 01:30:18;;;;;;;21.58;14.43;;;;;;;;;;5106701;28;20031;-70
2022/08/18 01:32:45;;;;;;;21.92;14.05;;;;;;;;;;5102514;28;20181;-71
2022/08/18 01:35:12;;;;;;;22.52;13.80;;;;;;;;;;5104266;28;20152;-70
2022/08/18 01:37:40;;;;;;;29.92;13.88;;;;;;;;;;5104383;28;20040;-70
2022/08/18 01:40:07;;;;;;;24.17;14.68;;;;;;;;;;5103547;28;20955;-70
2022/08/18 01:42:34;;;;;;;22.92;14.85;;;;;;;;;;5107209;28;20410;-70
2022/08/18 01:45:03;;;;;;;30.83;16.33;;;;;;;;;;5101672;28;20039;-70
2022/08/18 01:47:30;;;;;;;28.05;16.52;;;;;;;;;;5106735;28;20375;-70
2022/08/18 01:49:57;;;;;;;20.73;14.88;;;;;;;;;;5098254;28;20059;-70
2022/08/18 01:52:24;;;;;;;22.85;14.80;;;;;;;;;;5107269;28;20063;-71
2022/08/18 01:54:50;;;;;;;28.05;14.82;;;;;;;;;;5102629;28;20134;-71
2022/08/18 01:57:17;;;;;;;33.53;15.65;;;;;;;;;;5102679;28;20043;-70
2022/08/18 01:59:44;;;;;;;24.45;14.82;;;;;;;;;;5104399;28;20096;-71
2022/08/18 02:02:13;;;;;;;24.08;13.40;;;;;;;;;;5103411;28;20048;-71
2022/08/18 02:04:40;;;;;;;23.88;13.77;;;;;;;;;;5101495;28;20440;-71
2022/08/18 02:07:08;;;;;;;24.45;13.75;;;;;;;;;;5103036;28;20047;-71
2022/08/18 02:09:36;;;;;;;20.55;12.90;;;;;;;;;;5108237;28;20175;-71
2022/08/18 02:12:02;;;;;;;20.80;12.32;;;;;;;;;;5101662;28;20040;-71
2022/08/18 02:14:28;;;;;;;14.45;11.32;;;;;;;;;;5105504;28;20444;-70
2022/08/18 02:16:57;;;;;;;29.27;13.45;;;;;;;;;;5100730;28;20390;-71
2022/08/18 02:19:23;;;;;;;24.20;12.95;;;;;;;;;;5107075;28;20105;-71
2022/08/18 02:21:51;;;;;;;21.13;12.30;;;;;;;;;;5103271;28;20052;-71
2022/08/18 02:24:17;;;;;;;18.38;11.48;;;;;;;;;;5100651;28;20378;-71
2022/08/18 02:26:43;;;;;;;20.10;11.07;;;;;;;;;;5105481;28;20098;-71
2022/08/18 02:29:09;;;;;;;15.38;10.55;;;;;;;;;;5093780;28;20039;-71
2022/08/18 02:31:35;;;;;;;19.98;11.45;;;;;;;;;;5105902;28;20056;-71
2022/08/18 02:34:02;;;;;;;17.13;10.90;;;;;;;;;;5100335;28;20538;-71
2022/08/18 02:36:28;;;;;;;18.70;9.57;;;;;;;;;;5104886;28;20414;-71
2022/08/18 02:38:54;;;;;;;20.38;10.60;;;;;;;;;;5105665;28;20071;-71
2022/08/18 02:41:21;;;;;;;21.33;11.50;;;;;;;;;;5095353;28;20062;-70
2022/08/18 02:43:48;;;;;;;21.33;10.35;;;;;;;;;;5102474;28;20044;-70
2022/08/18 02:46:15;;;;;;;24.75;11.25;;;;;;;;;;5100714;28;20050;-71
2022/08/18 02:48:41;;;;;;;21.13;12.75;;;;;;;;;;5099539;28;20394;-71
2022/08/18 02:51:11;;;;;;;17.30;11.27;;;;;;;;;;5103404;28;20039;-71
2022/08/18 02:53:38;;;;;;;20.15;10.98;;;;;;;;;;5099250;28;20043;-71
2022/08/18 02:56:23;;;;;;;28.40;15.18;;;;;;;;;;5102216;28;20120;-71
2022/08/18 02:58:52;;;;;;;27.63;14.35;;;;;;;;;;5099488;28;20039;-71
2022/08/18 03:01:19;;;;;;;22.73;13.63;;;;;;;;;;5101176;28;20043;-71
2022/08/18 03:03:45;;;;;;;25.33;12.93;;;;;;;;;;5100185;28;20091;-70
2022/08/18 03:06:11;;;;;;;23.13;13.10;;;;;;;;;;5089189;28;20486;-71
2022/08/18 03:08:37;;;;;;;26.50;14.00;;;;;;;;;;5100119;28;20032;-71
2022/08/18 03:11:04;;;;;;;19.05;13.55;;;;;;;;;;5103339;28;20106;-71
2022/08/18 03:13:30;;;;;;;25.17;15.15;;;;;;;;;;5102259;28;20048;-70
2022/08/18 03:15:56;;;;;;;29.35;16.73;;;;;;;;;;5106054;28;20047;-71
2022/08/18 03:18:23;;;;;;;21.75;14.82;;;;;;;;;;5108190;28;20486;-71
2022/08/18 03:20:49;;;;;;;20.40;13.23;;;;;;;;;;5107862;27;20044;-70
2022/08/18 03:23:15;;;;;;;22.98;15.07;;;;;;;;;;5109018;28;20505;-71
2022/08/18 03:25:44;;;;;;;42.47;19.80;;;;;;;;;;5106481;28;20055;-71
2022/08/18 03:28:10;;;;;;;19.27;14.38;;;;;;;;;;5107279;28;20074;-71
2022/08/18 03:30:36;;;;;;;25.83;16.23;;;;;;;;;;5106682;28;20044;-70
2022/08/18 03:33:02;;;;;;;30.52;18.33;;;;;;;;;;5108472;28;20054;-71
2022/08/18 03:35:29;;;;;;;37.50;18.83;;;;;;;;;;5106788;28;20040;-71
2022/08/18 03:37:58;;;;;;;36.92;19.42;;;;;;;;;;5102467;28;20132;-70
2022/08/18 03:40:24;;;;;;;26.40;15.43;;;;;;;;;;5104950;28;20470;-71
2022/08/18 03:42:50;;;;;;;28.88;17.13;;;;;;;;;;5107070;28;20043;-71
2022/08/18 03:45:16;;;;;;;28.80;17.17;;;;;;;;;;5107819;28;20064;-70
2022/08/18 03:47:44;;;;;;;34.50;17.83;;;;;;;;;;5107892;28;20039;-71
2022/08/18 03:50:11;;;;;;;24.63;18.65;;;;;;;;;;5103994;28;20047;-71
2022/08/18 03:52:37;;;;;;;26.08;16.65;;;;;;;;;;5109212;28;20047;-71
2022/08/18 03:55:04;;;;;;;22.80;15.10;;;;;;;;;;5104764;28;20047;-71
2022/08/18 03:57:31;;;;;;;27.80;14.32;;;;;;;;;;5104342;28;20040;-71
2022/08/18 03:59:57;;;;;;;21.70;13.88;;;;;;;;;;5105678;28;20342;-71
2022/08/18 04:02:24;;;;;;;20.85;14.07;;;;;;;;;;5109250;28;20552;-70
2022/08/18 04:04:50;;;;;;;23.17;15.05;;;;;;;;;;5099686;28;20077;-71
2022/08/18 04:07:17;;;;;;;25.33;14.77;;;;;;;;;;5103573;28;20442;-70
2022/08/18 04:09:44;;;;;;;26.48;14.25;;;;;;;;;;5107524;28;20394;-71
2022/08/18 04:12:12;;;;;;;22.10;14.75;;;;;;;;;;5106761;28;20050;-71
2022/08/18 04:14:39;;;;;;;25.20;13.32;;;;;;;;;;5104629;28;20047;-71
2022/08/18 04:17:05;;;;;;;21.20;13.13;;;;;;;;;;5100895;28;20036;-71
2022/08/18 04:19:33;;;;;;;27.83;13.32;;;;;;;;;;5107740;28;20505;-71
2022/08/18 04:22:00;;;;;;;19.60;13.95;;;;;;;;;;5106196;28;20059;-71
2022/08/18 04:24:27;;;;;;;20.27;12.07;;;;;;;;;;5105341;28;20044;-71
2022/08/18 04:26:55;;;;;;;24.08;12.02;;;;;;;;;;5107155;27;20035;-71
2022/08/18 04:29:21;;;;;;;20.73;12.05;;;;;;;;;;5102617;28;20043;-71
2022/08/18 04:31:49;;;;;;;19.42;12.60;;;;;;;;;;5104988;28;20050;-70
2022/08/18 04:34:15;;;;;;;16.90;11.90;;;;;;;;;;5104680;28;20494;-71
2022/08/18 04:36:42;;;;;;;17.92;12.45;;;;;;;;;;5106678;28;20051;-70
2022/08/18 04:39:09;;;;;;;18.08;13.57;;;;;;;;;;5103376;28;20880;-70
2022/08/18 04:41:36;;;;;;;20.45;12.40;;;;;;;;;;5096264;28;20062;-70
2022/08/18 04:44:03;;;;;;;18.23;12.00;;;;;;;;;;5106995;28;20185;-71
2022/08/18 04:46:30;;;;;;;17.90;11.88;;;;;;;;;;5104736;28;20239;-71
2022/08/18 04:48:58;;;;;;;19.48;11.30;;;;;;;;;;5106720;28;20051;-71
2022/08/18 04:51:25;;;;;;;29.55;12.68;;;;;;;;;;5106069;28;20040;-70
2022/08/18 04:53:51;;;;;;;21.48;12.93;;;;;;;;;;5099801;28;20135;-70
2022/08/18 04:56:24;;;;;;;16.13;11.82;;;;;;;;;;5104437;28;20126;-70
2022/08/18 04:58:51;;;;;;;20.10;12.40;;;;;;;;;;5103976;28;20122;-71
2022/08/18 05:01:19;;;;;;;24.88;13.02;;;;;;;;;;5104229;28;20398;-71
2022/08/18 05:03:45;;;;;;;20.95;12.38;;;;;;;;;;5104998;28;20040;-71
2022/08/18 05:06:11;;;;;;;24.23;12.75;;;;;;;;;;5107969;28;20032;-70
2022/08/18 05:08:38;;;;;;;21.65;12.27;;;;;;;;;;5103964;28;20053;-70
2022/08/18 05:11:04;;;;;;;20.50;12.35;;;;;;;;;;5104624;28;20046;-71
2022/08/18 05:13:30;;;;;;;19.95;12.13;;;;;;;;;;5100160;28;20048;-70
2022/08/18 05:16:02;;;;;;;20.27;11.68;;;;;;;;;;5106017;28;20116;-70
2022/08/18 05:18:28;;;;;;;21.95;11.82;;;;;;;;;;5104464;28;20051;-70
2022/08/18 05:20:55;;;;;;;17.95;10.55;;;;;;;;;;5102636;28;20089;-70
2022/08/18 05:23:22;;;;;;;16.95;11.23;;;;;;;;;;5106872;28;20075;-71
2022/08/18 05:25:49;;;;;;;24.73;11.13;;;;;;;;;;5102973;28;20043;-70
2022/08/18 05:28:17;;;;;;;23.65;11.15;;;;;;;;;;5104602;28;20440;-70
2022/08/18 05:30:43;;;;;;;24.02;10.65;;;;;;;;;;5102911;28;20043;-71
2022/08/18 05:33:10;;;;;;;16.88;9.88;;;;;;;;;;5102706;28;20091;-71
2022/08/18 05:35:40;;;;;;;25.90;10.90;;;;;;;;;;5101552;28;20106;-71
2022/08/18 05:38:18;;;;;;;21.00;9.30;;;;;;;;;;5105663;28;20063;-71
2022/08/18 05:40:45;;;;;;;18.85;9.57;;;;;;;;;;5103312;28;20558;-70
2022/08/18 05:43:13;;;;;;;24.70;8.63;;;;;;;;;;5098671;28;20052;-71
2022/08/18 05:45:41;;;;;;;27.42;8.00;;;;;;;;;;5103652;28;20065;-71
2022/08/18 05:48:07;;;;;;;20.55;7.72;;;;;;;;;;5103374;28;20043;-71
2022/08/18 05:50:35;;;;;;;15.95;6.85;;;;;;;;;;5098543;28;20436;-71
2022/08/18 05:53:07;;;;;;;17.35;7.40;;;;;;;;;;5101833;28;20040;-70
2022/08/18 05:58:33;;;;;;;15.20;5.40;;;;;;;;;;5104801;28;20483;-71
2022/08/18 06:01:04;;;;;;;15.32;7.35;;;;;;;;;;5103815;28;20040;-71
2022/08/18 06:03:34;;;;;;;16.35;6.15;;;;;;;;;;5106039;28;20100;-71
2022/08/18 06:06:04;;;;;;;21.85;5.90;;;;;;;;;;5113285;27;20054;-71
2022/08/18 06:08:40;;;;;;;12.32;4.60;;;;;;;;;;5103676;28;20082;-71
2022/08/18 06:11:06;;;;;;;10.10;4.35;;;;;;;;;;5104241;28;20042;-71
2022/08/18 06:13:37;;;;;;;9.80;3.97;;;;;;;;;;5100789;28;20091;-71
2022/08/18 06:16:05;;;;;;;13.07;2.90;;;;;;;;;;5101856;28;20082;-71
2022/08/18 06:18:48;;;;;;;11.60;3.13;;;;;;;;;;5100921;28;20103;-71
2022/08/18 06:21:30;;;;;;;9.02;2.85;;;;;;;;;;5103393;28;20143;-71
2022/08/18 06:24:10;;;;;;;9.02;3.17;;;;;;;;;;5100063;28;20044;-70
2022/08/18 06:26:48;;;;;;;13.38;3.33;;;;;;;;;;5107177;28;20035;-70
2022/08/18 06:29:16;;;;;;;8.93;3.05;;;;;;;;;;5094301;28;20043;-71
2022/08/18 06:31:43;;;;;;;14.70;2.92;;;;;;;;;;5101173;28;20040;-71
2022/08/18 06:34:18;;;;;;;12.30;2.97;;;;;;;;;;5104087;28;20380;-71
2022/08/18 06:36:49;;;;;;;10.52;3.05;;;;;;;;;;5104379;28;20084;-70
2022/08/18 06:39:21;;;;;;;11.40;3.08;;;;;;;;;;5099200;28;20048;-71
2022/08/18 06:42:04;;;;;;;15.05;3.63;;;;;;;;;;5092751;28;20035;-70
2022/08/18 06:44:41;;;;;;;10.50;3.72;;;;;;;;;;5102794;28;20487;-70
2022/08/18 06:47:25;;;;;;;10.73;4.32;;;;;;;;;;5092087;28;20048;-70
2022/08/18 06:49:53;;;;;;;;;;;;;;;;;;5090711;28;20488;-70
2022/08/18 06:52:50;;;;;;;19.35;5.97;;;;;;;;;;5102364;28;19923;-71
2022/08/18 06:55:17;;;;;;;13.13;6.07;;;;;;;;;;5105265;28;20040;-70
2022/08/18 06:57:56;;;;;;;14.85;5.30;;;;;;;;;;5098954;28;20059;-71
2022/08/18 07:00:24;;;;;;;9.50;3.38;;;;;;;;;;5106019;28;20101;-70
2022/08/18 07:03:10;;;;;;;11.18;3.78;;;;;;;;;;5102904;28;20466;-70
2022/08/18 07:05:37;;;;;;;12.15;3.78;;;;;;;;;;5102944;28;20047;-70
2022/08/18 07:08:15;;;;;;;11.93;3.55;;;;;;;;;;5101460;28;20035;-70
2022/08/18 07:10:43;;;;;;;12.40;3.17;;;;;;;;;;5101960;28;20047;-70
2022/08/18 07:13:13;;;;;;;12.88;3.03;;;;;;;;;;5100971;28;20040;-70
2022/08/18 07:15:39;;;;;;;9.48;2.80;;;;;;;;;;5101284;28;20526;-70
2022/08/18 07:18:07;;;;;;;12.23;3.20;;;;;;;;;;5099393;28;20494;-70
2022/08/18 07:20:42;;;;;;;10.25;3.03;;;;;;;;;;5101789;28;20039;-70
2022/08/18 07:23:09;;;;;;;10.48;2.97;;;;;;;;;;5100276;28;20051;-70
2022/08/18 07:25:40;;;;;;;9.30;2.38;;;;;;;;;;5093952;28;20040;-70
2022/08/18 07:28:07;;;;;;;13.18;3.22;;;;;;;;;;5105862;28;20050;-70
2022/08/18 07:30:35;;;;;;;7.18;2.80;;;;;;;;;;5099584;28;20047;-70
2022/08/18 07:33:10;;;;;;;10.02;3.08;;;;;;;;;;5101029;28;20126;-70
2022/08/18 07:35:38;;;;;;;7.93;2.72;;;;;;;;;;5098936;28;20080;-70
2022/08/18 07:38:16;;;;;;;9.27;2.50;;;;;;;;;;5101120;28;20039;-70
2022/08/18 07:40:47;;;;;;;7.30;2.60;;;;;;;;;;5102070;28;20093;-70
2022/08/18 07:43:17;;;;;;;10.13;2.92;;;;;;;;;;5101833;28;20486;-70
2022/08/18 07:45:44;;;;;;;6.82;2.20;;;;;;;;;;5102233;28;20035;-70
2022/08/18 07:48:20;;;;;;;11.90;2.67;;;;;;;;;;5099625;28;20047;-70
2022/08/18 07:50:46;;;;;;;11.00;2.70;;;;;;;;;;5099881;28;20343;-70
2022/08/18 07:53:18;;;;;;;6.07;2.15;;;;;;;;;;5101198;28;20395;-70
2022/08/18 07:55:47;;;;;;;9.57;2.78;;;;;;;;;;5104756;28;20173;-70
2022/08/18 07:58:17;;;;;;;7.57;2.25;;;;;;;;;;5098738;28;20044;-70
2022/08/18 08:00:48;;;;;;;5.45;1.75;;;;;;;;;;5095826;28;20036;-70
2022/08/18 08:03:25;;;;;;;6.55;1.83;;;;;;;;;;5102904;28;20039;-70
2022/08/18 08:06:01;;;;;;;8.23;2.10;;;;;;;;;;5096623;28;20039;-70
2022/08/18 08:08:30;;;;;;;7.60;1.98;;;;;;;;;;5109591;28;20051;-70
2022/08/18 08:11:05;;;;;;;5.85;1.90;;;;;;;;;;5104544;28;20478;-70
2022/08/18 08:13:38;;;;;;;3.35;1.77;;;;;;;;;;5106711;28;20055;-70
2022/08/18 08:16:13;;;;;;;7.85;2.10;;;;;;;;;;5107022;28;20040;-70
2022/08/18 08:18:45;;;;;;;8.85;2.67;;;;;;;;;;5102413;28;20095;-70
2022/08/18 08:21:16;;;;;;;6.65;2.38;;;;;;;;;;5105213;28;20870;-70
2022/08/18 08:24:02;;;;;;;7.05;1.40;;;;;;;;;;5102753;28;20040;-70
2022/08/18 08:26:36;;;;;;;8.10;2.00;;;;;;;;;;5100252;28;20059;-70
2022/08/18 08:29:10;;;;;;;7.38;1.50;;;;;;;;;;5105799;28;20057;-70
2022/08/18 08:31:45;;;;;;;9.02;1.92;;;;;;;;;;5099580;28;20036;-70
2022/08/18 08:34:11;;;;;;;7.53;1.88;;;;;;;;;;5104773;27;20068;-70
2022/08/18 08:36:40;;;;;;;6.40;1.85;;;;;;;;;;5109411;28;20387;-70
2022/08/18 08:39:27;;;;;;;6.65;1.88;;;;;;;;;;5081736;28;20403;-71
2022/08/18 08:41:56;;;;;;;8.05;2.00;;;;;;;;;;5108477;27;20031;-70
2022/08/18 08:44:29;;;;;;;6.18;2.17;;;;;;;;;;5106619;28;20048;-70
2022/08/18 08:46:55;;;;;;;;;;;;;;;;;;5106693;28;20082;-70
2022/08/18 08:49:25;;;;;;;5.18;1.60;;;;;;;;;;5106269;28;20378;-70
2022/08/18 08:51:56;;;;;;;6.70;2.00;;;;;;;;;;5102984;28;20039;-70
2022/08/18 08:54:30;;;;;;;6.15;1.50;;;;;;;;;;5105008;28;20043;-70
2022/08/18 08:56:59;;;;;;;4.50;1.55;;;;;;;;;;5100634;28;20039;-70
2022/08/18 08:59:25;;;;;;;8.38;2.03;;;;;;;;;;5085655;28;20036;-72
2022/08/18 09:01:58;;;;;;;10.52;1.60;;;;;;;;;;5101064;28;21258;-70
2022/08/18 09:04:31;;;;;;;5.13;1.70;;;;;;;;;;5100309;28;20052;-70
2022/08/18 09:07:07;;;;;;;5.95;1.73;;;;;;;;;;5100975;28;20820;-70
2022/08/18 09:09:54;;;;;;;5.85;1.80;;;;;;;;;;5105799;28;20051;-70
2022/08/18 09:12:25;;;;;;;5.05;1.38;;;;;;;;;;5101650;28;20507;-70
2022/08/18 09:14:57;;;;;;;5.38;1.55;;;;;;;;;;5099848;28;20139;-70
2022/08/18 09:17:42;;;;;;;7.97;1.65;;;;;;;;;;5092710;28;20507;-70
2022/08/18 09:20:23;;;;;;;5.35;1.30;;;;;;;;;;5099622;28;20051;-70
2022/08/18 09:22:51;;;;;;;3.53;1.80;;;;;;;;;;5105044;28;20072;-70
2022/08/18 09:25:31;;;;;;;3.97;1.25;;;;;;;;;;5101911;28;20039;-70
2022/08/18 09:28:10;;;;;;;9.82;1.83;;;;;;;;;;5102922;28;20086;-70
2022/08/18 09:30:45;;;;;;;6.63;1.25;;;;;;;;;;5103077;28;20453;-70
2022/08/18 09:33:13;;;;;;;4.28;1.33;;;;;;;;;;5099862;28;20083;-70
2022/08/18 09:35:48;;;;;;;4.75;1.52;;;;;;;;;;5106507;28;20101;-70
2022/08/18 09:44:08;;;;;;;9.48;1.60;;;;;;;;;;5105866;28;20449;-70
2022/08/18 09:46:34;;;;;;;;;;;;;;;;;;5104164;28;20059;-70
2022/08/18 09:49:30;;;;;;;13.52;1.73;;;;;;;;;;5101210;28;19927;-70
2022/08/18 09:51:58;;;;;;;3.35;1.40;;;;;;;;;;5101763;28;20031;-70
2022/08/18 09:54:27;;;;;;;4.70;1.77;;;;;;;;;;5103920;28;20047;-70
2022/08/18 09:56:57;;;;;;;4.38;1.65;;;;;;;;;;5102234;28;20105;-70
2022/08/18 09:59:38;;;;;;;7.32;2.42;;;;;;;;;;5101759;28;20402;-70
2022/08/18 10:02:06;;;;;;;4.45;1.73;;;;;;;;;;5100723;28;20069;-70
2022/08/18 10:04:34;;;;;;;5.10;2.05;;;;;;;;;;5100371;28;20123;-70
2022/08/18 10:07:14;;;;;;;5.35;1.50;;;;;;;;;;5102707;28;20054;-70
2022/08/18 10:09:44;;;;;;;5.70;1.65;;;;;;;;;;5107607;28;20052;-70
2022/08/18 10:12:20;;;;;;;4.85;1.60;;;;;;;;;;5096878;28;20077;-70
2022/08/18 10:14:53;;;;;;;5.35;1.40;;;;;;;;;;5102454;28;20110;-70
2022/08/18 10:17:26;;;;;;;4.22;1.25;;;;;;;;;;5099257;28;20062;-70
2022/08/18 10:20:03;;;;;;;16.40;2.03;;;;;;;;;;5099801;28;20039;-70
2022/08/18 10:22:36;;;;;;;5.32;1.52;;;;;;;;;;5099434;28;20043;-70
2022/08/18 10:25:03;;;;;;;5.05;1.05;;;;;;;;;;5100710;28;20127;-70
2022/08/18 10:27:45;;;;;;;5.45;1.38;;;;;;;;;;5116316;27;20040;-70
2022/08/18 10:30:35;;;;;;;3.75;1.35;;;;;;;;;;5101285;28;20050;-70
2022/08/18 10:33:02;;;;;;;2.42;0.90;;;;;;;;;;5099778;28;20055;-70
2022/08/18 10:35:36;;;;;;;7.38;1.45;;;;;;;;;;5103113;28;20070;-70
2022/08/18 10:38:03;;;;;;;4.05;1.13;;;;;;;;;;5095732;28;20152;-70
2022/08/18 10:40:30;;;;;;;3.65;1.33;;;;;;;;;;5096891;28;20096;-70
2022/08/18 10:42:56;;;;;;;6.68;1.30;;;;;;;;;;5102733;28;20044;-70
2022/08/18 10:45:24;;;;;;;9.68;1.50;;;;;;;;;;5096045;28;20047;-69
2022/08/18 10:48:05;;;;;;;3.90;1.10;;;;;;;;;;5098119;28;20498;-69
2022/08/18 10:50:37;;;;;;;3.58;0.90;;;;;;;;;;5089685;28;20059;-69
2022/08/18 10:53:03;;;;;;;3.42;1.20;;;;;;;;;;5070139;28;20039;-69
2022/08/18 10:55:30;;;;;;;3.13;1.05;;;;;;;;;;5098113;28;20060;-69
2022/08/18 10:58:06;;;;;;;2.67;1.10;;;;;;;;;;5092445;28;20405;-69
2022/08/18 11:00:44;;;;;;;3.20;1.10;;;;;;;;;;5097117;28;20143;-68
2022/08/18 11:03:10;;;;;;;4.38;1.15;;;;;;;;;;5101809;28;20043;-69
2022/08/18 11:05:36;;;;;;;2.72;0.90;;;;;;;;;;5098463;28;20490;-69
2022/08/18 11:08:05;;;;;;;4.45;1.40;;;;;;;;;;5101238;28;20055;-69
2022/08/18 11:10:39;;;;;;;3.10;1.02;;;;;;;;;;5097177;28;20044;-70
2022/08/18 11:13:13;;;;;;;3.38;1.17;;;;;;;;;;5100544;28;20054;-69
2022/08/18 11:15:52;;;;;;;4.05;1.10;;;;;;;;;;5103895;28;20112;-70
2022/08/18 11:18:36;;;;;;;5.15;1.23;;;;;;;;;;5097554;28;20078;-69
2022/08/18 11:21:23;;;;;;;6.45;1.20;;;;;;;;;;5101899;28;20047;-69
2022/08/18 11:24:03;;;;;;;2.05;1.02;;;;;;;;;;5096807;28;20130;-69
2022/08/18 11:26:33;;;;;;;4.55;1.15;;;;;;;;;;5105772;28;20058;-69
2022/08/18 11:29:01;;;;;;;4.82;1.17;;;;;;;;;;5093534;28;20130;-69
2022/08/18 11:31:27;;;;;;;4.57;1.13;;;;;;;;;;5082826;28;20343;-70
2022/08/18 11:33:53;;;;;;;3.55;1.33;;;;;;;;;;5101324;28;20042;-70
2022/08/18 11:36:29;;;;;;;4.22;1.30;;;;;;;;;;5107462;28;20032;-70
2022/08/18 11:38:55;;;;;;;9.80;1.40;;;;;;;;;;5097806;28;20458;-70
2022/08/18 11:41:25;;;;;;;4.10;1.15;;;;;;;;;;5105327;28;20374;-70
2022/08/18 11:43:59;;;;;;;4.38;1.48;;;;;;;;;;5109378;28;20079;-70
2022/08/18 11:46:37;;;;;;;3.17;1.30;;;;;;;;;;5104735;28;20320;-70
2022/08/18 11:49:16;;;;;;;4.25;1.45;;;;;;;;;;5109535;28;20498;-70
2022/08/18 11:51:55;;;;;;;6.63;1.30;;;;;;;;;;5101011;28;20152;-70
2022/08/18 11:54:22;;;;;;;3.60;1.23;;;;;;;;;;5109846;28;20504;-70
2022/08/18 11:56:48;;;;;;;2.80;1.25;;;;;;;;;;5101420;28;20051;-70
2022/08/18 11:59:25;;;;;;;4.68;1.25;;;;;;;;;;5102496;28;20054;-70
2022/08/18 12:01:53;;;;;;;4.25;1.50;;;;;;;;;;5105634;28;20077;-70
2022/08/18 12:04:20;;;;;;;3.53;1.30;;;;;;;;;;5089145;28;20470;-71
2022/08/18 12:06:54;;;;;;;4.45;1.60;;;;;;;;;;5103429;28;20053;-71
2022/08/18 12:09:27;;;;;;;3.75;1.38;;;;;;;;;;5099108;28;20077;-70
2022/08/18 12:11:54;;;;;;;7.13;1.55;;;;;;;;;;5096473;28;20043;-70
2022/08/18 12:14:23;;;;;;;2.45;1.20;;;;;;;;;;5105881;28;20044;-70
2022/08/18 12:16:50;;;;;;;6.97;1.48;;;;;;;;;;5088816;28;20135;-70
2022/08/18 12:19:17;;;;;;;4.35;1.38;;;;;;;;;;5097054;28;20048;-70
2022/08/18 12:21:44;;;;;;;2.63;1.30;;;;;;;;;;5108207;28;20075;-70
2022/08/18 12:24:20;;;;;;;4.88;1.52;;;;;;;;;;5107970;28;20044;-70
2022/08/18 12:26:47;;;;;;;8.98;1.58;;;;;;;;;;5101679;28;20027;-70
2022/08/18 12:29:14;;;;;;;3.85;1.20;;;;;;;;;;5102277;28;20039;-70
2022/08/18 12:31:40;;;;;;;4.60;1.02;;;;;;;;;;5102087;28;20114;-70
2022/08/18 12:34:06;;;;;;;4.80;1.35;;;;;;;;;;5099929;28;20047;-70
2022/08/18 12:36:33;;;;;;;2.80;1.30;;;;;;;;;;5106040;28;20119;-70
2022/08/18 12:38:59;;;;;;;3.28;1.27;;;;;;;;;;5094181;28;20054;-70
2022/08/18 12:41:26;;;;;;;6.85;1.35;;;;;;;;;;5100727;28;20137;-69
2022/08/18 12:43:52;;;;;;;4.53;1.20;;;;;;;;;;5106749;28;20482;-70
2022/08/18 12:46:19;;;;;;;4.40;1.17;;;;;;;;;;5096739;28;20119;-70
2022/08/18 12:48:45;;;;;;;3.83;1.65;;;;;;;;;;5105631;28;20134;-70
2022/08/18 12:51:12;;;;;;;8.30;1.45;;;;;;;;;;5103016;28;20127;-70
2022/08/18 12:53:39;;;;;;;3.20;1.30;;;;;;;;;;5122150;27;20048;-70
2022/08/18 12:56:07;;;;;;;5.55;1.10;;;;;;;;;;5108081;28;20076;-70
2022/08/18 12:58:33;;;;;;;4.07;1.30;;;;;;;;;;5099315;28;20123;-70
2022/08/18 13:01:00;;;;;;;4.38;1.50;;;;;;;;;;5093709;28;20044;-70
2022/08/18 13:03:26;;;;;;;4.13;1.50;;;;;;;;;;5098087;28;20047;-71
2022/08/18 13:05:52;;;;;;;6.20;1.60;;;;;;;;;;5100268;28;20036;-71
2022/08/18 13:08:20;;;;;;;4.15;1.40;;;;;;;;;;5102142;28;20036;-71
2022/08/18 13:10:47;;;;;;;3.17;1.33;;;;;;;;;;5103432;28;20032;-70
2022/08/18 13:13:14;;;;;;;3.50;1.65;;;;;;;;;;5106983;28;20056;-71
2022/08/18 13:15:40;;;;;;;5.07;1.60;;;;;;;;;;5104609;28;20051;-70
2022/08/18 13:18:07;;;;;;;4.18;1.60;;;;;;;;;;5104196;28;20475;-71
2022/08/18 13:20:33;;;;;;;4.95;1.90;;;;;;;;;;5103418;28;20053;-70
2022/08/18 13:22:59;;;;;;;3.97;1.67;;;;;;;;;;5105264;28;20123;-71
2022/08/18 13:25:25;;;;;;;5.53;1.58;;;;;;;;;;5096833;28;20036;-70
2022/08/18 13:27:52;;;;;;;8.18;1.75;;;;;;;;;;5108008;28;20114;-71
2022/08/18 13:30:18;;;;;;;3.72;1.42;;;;;;;;;;5102970;28;20383;-70
2022/08/18 13:32:44;;;;;;;3.10;1.40;;;;;;;;;;5102277;28;20043;-70
2022/08/18 13:35:11;;;;;;;5.47;1.83;;;;;;;;;;5104212;28;20035;-71
2022/08/18 13:37:37;;;;;;;4.97;1.75;;;;;;;;;;5102286;28;20047;-70
2022/08/18 13:40:04;;;;;;;5.25;1.77;;;;;;;;;;5102859;28;20040;-70
2022/08/18 13:42:30;;;;;;;2.42;1.40;;;;;;;;;;5098797;28;20134;-70
2022/08/18 13:44:59;;;;;;;5.88;1.92;;;;;;;;;;5090416;28;20352;-70
2022/08/18 13:47:28;;;;;;;4.35;1.83;;;;;;;;;;5104343;28;20393;-70
2022/08/18 13:49:54;;;;;;;4.90;1.55;;;;;;;;;;5102999;28;20448;-70
2022/08/18 13:52:21;;;;;;;6.85;1.60;;;;;;;;;;5103064;28;20104;-71
2022/08/18 13:54:47;;;;;;;6.65;1.90;;;;;;;;;;5103177;28;20087;-70
2022/08/18 13:57:13;;;;;;;9.60;1.83;;;;;;;;;;5106191;28;20055;-70
2022/08/18 13:59:39;;;;;;;3.50;1.60;;;;;;;;;;5098652;28;20047;-71
2022/08/18 14:02:09;;;;;;;5.40;1.73;;;;;;;;;;5106226;28;20557;-71
2022/08/18 14:04:37;;;;;;;3.63;1.60;;;;;;;;;;5102856;28;20032;-71
2022/08/18 14:07:04;;;;;;;7.00;1.98;;;;;;;;;;5097979;28;20035;-71
2022/08/18 14:09:30;;;;;;;4.35;1.77;;;;;;;;;;5104722;28;20047;-71
2022/08/18 14:11:57;;;;;;;6.60;2.13;;;;;;;;;;5094440;28;20048;-71
2022/08/18 14:14:23;;;;;;;4.80;1.52;;;;;;;;;;5107357;28;20342;-71
2022/08/18 14:16:49;;;;;;;7.70;1.60;;;;;;;;;;5101387;28;20062;-71
2022/08/18 14:27:33;;;;;;;5.57;1.58;;;;;;;;;;5113371;27;20047;-71
2022/08/18 14:30:00;;;;;;;6.30;2.38;;;;;;;;;;5098725;28;20526;-71
2022/08/18 14:32:28;;;;;;;4.93;1.50;;;;;;;;;;5098810;28;20083;-71
2022/08/18 14:34:55;;;;;;;6.30;1.52;;;;;;;;;;5103573;28;20079;-71
2022/08/18 14:37:21;;;;;;;6.97;2.10;;;;;;;;;;5103919;28;20039;-71
2022/08/18 14:39:47;;;;;;;2.95;1.27;;;;;;;;;;5101438;28;20088;-71
2022/08/18 14:42:14;;;;;;;4.07;1.50;;;;;;;;;;5105139;28;20097;-71
2022/08/18 14:44:41;;;;;;;5.45;1.40;;;;;;;;;;5093796;28;20047;-71
2022/08/18 14:47:07;;;;;;;3.35;1.40;;;;;;;;;;5102384;28;20047;-71
2022/08/18 14:49:35;;;;;;;4.32;1.42;;;;;;;;;;5099468;28;20496;-71
2022/08/18 14:52:01;;;;;;;3.78;1.20;;;;;;;;;;5101259;28;20667;-71
2022/08/18 14:54:28;;;;;;;5.07;1.50;;;;;;;;;;5105722;28;20047;-71
2022/08/18 14:56:54;;;;;;;5.68;1.45;;;;;;;;;;5102959;28;20038;-70
2022/08/18 14:59:22;;;;;;;8.63;2.03;;;;;;;;;;5103562;28;20089;-70
2022/08/18 15:01:48;;;;;;;4.78;1.70;;;;;;;;;;5100739;28;20090;-71
2022/08/18 15:04:14;;;;;;;3.50;1.27;;;;;;;;;;5106338;28;20047;-71
2022/08/18 15:06:40;;;;;;;5.40;1.77;;;;;;;;;;5100385;28;20040;-70
2022/08/18 15:09:06;;;;;;;6.60;2.10;;;;;;;;;;5102238;28;20040;-70
2022/08/18 15:11:32;;;;;;;5.40;2.30;;;;;;;;;;5100754;28;20118;-70